createdAt,value
2017-11-03T00:00:59.689Z,1.67
2017-11-03T00:03:26.530Z,1.70
2017-11-03T00:05:53.319Z,2.00
2017-11-03T00:08:20.176Z,2.00
2017-11-03T00:10:47.324Z,1.90
2017-11-03T00:13:14.363Z,2.07
2017-11-03T00:15:41.666Z,2.00
2017-11-03T00:18:08.476Z,1.80
2017-11-03T00:20:35.510Z,1.70
2017-11-03T00:23:02.375Z,1.90
2017-11-03T00:25:29.183Z,2.07
2017-11-03T00:27:55.957Z,2.10
2017-11-03T00:30:22.763Z,1.80
2017-11-03T00:32:49.825Z,1.97
2017-11-03T00:35:16.650Z,2.13
2017-11-03T00:37:43.495Z,2.10
2017-11-03T00:40:10.274Z,2.10
2017-11-03T00:42:37.235Z,1.47
2017-11-03T00:45:04.350Z,2.27
2017-11-03T00:47:31.171Z,2.23
2017-11-03T00:49:58.248Z,2.10
2017-11-03T00:52:25.294Z,2.13
2017-11-03T00:54:52.294Z,3.50
2017-11-03T00:57:19.083Z,6.17
2017-11-03T00:59:45.882Z,4.73
2017-11-03T01:02:12.975Z,5.37
2017-11-03T01:04:39.819Z,2.80
2017-11-03T01:07:06.700Z,2.33
2017-11-03T01:09:33.508Z,1.97
2017-11-03T01:12:00.546Z,2.87
2017-11-03T01:14:27.365Z,2.30
2017-11-03T01:16:54.437Z,2.37
2017-11-03T01:19:21.595Z,2.10
2017-11-03T01:21:48.747Z,2.50
2017-11-03T01:24:15.588Z,2.00
2017-11-03T01:26:42.382Z,2.10
2017-11-03T01:29:09.210Z,2.10
2017-11-03T01:31:36.314Z,2.57
2017-11-03T01:34:03.363Z,3.80
2017-11-03T01:36:30.436Z,2.50
2017-11-03T01:38:57.571Z,2.80
2017-11-03T01:41:24.614Z,2.73
2017-11-03T01:43:51.768Z,2.33
2017-11-03T01:46:18.919Z,3.40
2017-11-03T01:48:45.761Z,2.20
2017-11-03T01:51:12.801Z,2.27
2017-11-03T01:53:39.863Z,2.13
2017-11-03T01:56:07.008Z,2.37
2017-11-03T01:58:33.875Z,1.50
2017-11-03T02:01:00.998Z,3.23
2017-11-03T02:03:27.843Z,2.13
2017-11-03T02:05:54.711Z,2.40
2017-11-03T02:08:21.519Z,3.00
2017-11-03T02:10:48.295Z,3.30
2017-11-03T02:13:15.136Z,2.47
2017-11-03T02:15:41.929Z,2.07
2017-11-03T02:18:08.995Z,1.87
2017-11-03T02:20:35.839Z,2.70
2017-11-03T02:23:02.891Z,2.53
2017-11-03T02:25:29.670Z,2.83
2017-11-03T02:27:56.787Z,2.53
2017-11-03T02:30:23.826Z,1.77
2017-11-03T02:32:50.622Z,3.00
2017-11-03T02:35:17.433Z,2.10
2017-11-03T02:37:44.262Z,2.40
2017-11-03T02:40:11.304Z,2.13
2017-11-03T02:42:38.459Z,3.13
2017-11-03T02:45:05.503Z,3.10
2017-11-03T02:47:32.282Z,2.87
2017-11-03T02:49:59.396Z,2.63
2017-11-03T02:52:26.209Z,2.47
2017-11-03T02:54:53.019Z,2.23
2017-11-03T02:57:19.825Z,2.20
2017-11-03T02:59:46.868Z,2.47
2017-11-03T03:02:13.684Z,2.63
2017-11-03T03:04:40.494Z,3.57
2017-11-03T03:07:07.602Z,2.87
2017-11-03T03:09:34.410Z,2.40
2017-11-03T03:12:01.280Z,2.57
2017-11-03T03:14:28.342Z,2.47
2017-11-03T03:16:55.118Z,2.20
2017-11-03T03:19:21.927Z,2.10
2017-11-03T03:21:48.965Z,2.70
2017-11-03T03:24:15.796Z,1.80
2017-11-03T03:26:42.964Z,1.93
2017-11-03T03:29:09.754Z,2.10
2017-11-03T03:31:36.850Z,2.00
2017-11-03T03:34:04.011Z,2.53
2017-11-03T03:36:31.022Z,1.60
2017-11-03T03:38:57.846Z,2.30
2017-11-03T03:41:24.678Z,2.70
2017-11-03T03:43:51.481Z,1.90
2017-11-03T03:46:18.261Z,1.97
2017-11-03T03:48:45.086Z,2.00
2017-11-03T03:51:12.215Z,2.37
2017-11-03T03:53:39.258Z,3.30
2017-11-03T03:56:06.411Z,3.10
2017-11-03T03:58:33.230Z,3.53
2017-11-03T04:01:00.298Z,2.20
2017-11-03T04:03:27.163Z,2.70
2017-11-03T04:05:54.313Z,2.60
2017-11-03T04:08:21.447Z,1.90
2017-11-03T04:10:48.603Z,2.30
2017-11-03T04:13:15.747Z,1.77
2017-11-03T04:15:42.790Z,1.60
2017-11-03T04:18:09.842Z,1.67
2017-11-03T04:20:36.892Z,1.63
2017-11-03T04:23:03.699Z,2.13
2017-11-03T04:25:30.519Z,2.53
2017-11-03T04:27:57.626Z,2.00
2017-11-03T04:30:24.675Z,4.00
2017-11-03T04:32:51.825Z,2.83
2017-11-03T04:35:18.866Z,2.23
2017-11-03T04:37:45.650Z,3.00
2017-11-03T04:40:12.462Z,2.40
2017-11-03T04:42:39.292Z,2.77
2017-11-03T04:45:06.352Z,4.00
2017-11-03T04:47:33.175Z,3.30
2017-11-03T04:49:59.991Z,2.70
2017-11-03T04:52:27.074Z,2.70
2017-11-03T04:54:53.959Z,3.27
2017-11-03T04:57:21.074Z,3.20
2017-11-03T04:59:48.114Z,2.40
2017-11-03T05:02:14.926Z,2.53
2017-11-03T05:04:42.015Z,2.27
2017-11-03T05:07:09.063Z,2.87
2017-11-03T05:09:36.211Z,2.87
2017-11-03T05:12:03.025Z,2.63
2017-11-03T05:14:30.113Z,2.47
2017-11-03T05:16:56.946Z,2.60
2017-11-03T05:19:23.714Z,2.33
2017-11-03T05:21:50.560Z,2.30
2017-11-03T05:24:17.679Z,2.13
2017-11-03T05:26:44.491Z,2.47
2017-11-03T05:29:11.306Z,2.90
2017-11-03T05:31:38.103Z,2.33
2017-11-03T05:34:04.920Z,2.27
2017-11-03T05:36:32.000Z,3.60
2017-11-03T05:38:59.071Z,1.77
2017-11-03T05:41:25.855Z,2.27
2017-11-03T05:43:52.665Z,2.63
2017-11-03T05:46:19.508Z,2.00
2017-11-03T05:48:46.315Z,2.60
2017-11-03T05:51:13.108Z,2.50
2017-11-03T05:53:40.201Z,2.57
2017-11-03T05:56:07.015Z,2.33
2017-11-03T05:58:33.786Z,2.80
2017-11-03T06:01:00.623Z,2.80
2017-11-03T06:03:27.435Z,2.30
2017-11-03T06:05:54.210Z,2.60
2017-11-03T06:08:21.039Z,2.73
2017-11-03T06:10:47.813Z,2.83
2017-11-03T06:13:14.629Z,2.50
2017-11-03T06:15:41.443Z,3.27
2017-11-03T06:18:08.218Z,2.80
2017-11-03T06:20:35.055Z,2.30
2017-11-03T06:23:01.830Z,2.60
2017-11-03T06:25:28.675Z,2.90
2017-11-03T06:27:55.446Z,2.73
2017-11-03T06:30:22.256Z,2.50
2017-11-03T06:32:49.070Z,2.73
2017-11-03T06:35:16.131Z,2.70
2017-11-03T06:37:43.174Z,2.87
2017-11-03T06:40:09.999Z,3.20
2017-11-03T06:42:36.811Z,3.70
2017-11-03T06:45:03.916Z,1.90
2017-11-03T06:47:30.747Z,2.57
2017-11-03T06:49:57.584Z,3.53
2017-11-03T06:52:24.407Z,2.37
2017-11-03T06:54:51.492Z,3.67
2017-11-03T06:57:18.297Z,2.27
2017-11-03T06:59:45.118Z,2.30
2017-11-03T07:02:12.225Z,2.97
2017-11-03T07:04:39.031Z,2.87
2017-11-03T07:07:05.839Z,2.10
2017-11-03T07:09:32.954Z,2.37
2017-11-03T07:11:59.737Z,2.33
2017-11-03T07:14:26.851Z,3.37
2017-11-03T07:16:53.889Z,2.30
2017-11-03T07:19:21.047Z,2.37
2017-11-03T07:21:47.838Z,2.30
2017-11-03T07:24:14.630Z,2.93
2017-11-03T07:26:41.515Z,2.53
2017-11-03T07:29:08.623Z,3.00
2017-11-03T07:31:35.437Z,3.50
2017-11-03T07:34:02.265Z,2.40
2017-11-03T07:36:29.091Z,2.30
2017-11-03T07:38:56.098Z,2.97
2017-11-03T07:41:23.142Z,2.33
2017-11-03T07:43:50.299Z,2.50
2017-11-03T07:46:17.342Z,2.33
2017-11-03T07:48:44.393Z,2.90
2017-11-03T07:51:11.232Z,5.27
2017-11-03T07:53:38.017Z,2.83
2017-11-03T07:56:05.290Z,3.47
2017-11-03T07:58:32.107Z,4.13
2017-11-03T08:00:58.915Z,6.30
2017-11-03T08:03:25.719Z,4.40
2017-11-03T08:05:52.802Z,3.40
2017-11-03T08:08:19.615Z,3.60
2017-11-03T08:10:46.700Z,4.23
2017-11-03T08:13:13.748Z,2.90
2017-11-03T08:15:40.790Z,4.70
2017-11-03T08:18:07.639Z,4.90
2017-11-03T08:20:34.417Z,5.73
2017-11-03T08:23:01.252Z,5.57
2017-11-03T08:25:28.071Z,6.20
2017-11-03T08:27:54.905Z,8.00
2017-11-03T08:30:21.741Z,9.53
2017-11-03T08:32:48.799Z,9.87
2017-11-03T08:35:15.632Z,16.07
2017-11-03T08:37:42.443Z,10.57
2017-11-03T08:40:09.474Z,11.80
2017-11-03T08:42:36.288Z,12.60
2017-11-03T08:45:03.085Z,14.17
2017-11-03T08:47:30.163Z,16.00
2017-11-03T08:49:56.997Z,13.43
2017-11-03T08:52:23.815Z,15.43
2017-11-03T08:54:50.651Z,13.20
2017-11-03T08:57:17.467Z,14.50
2017-11-03T08:59:44.490Z,15.77
2017-11-03T09:02:11.286Z,14.43
2017-11-03T09:04:38.371Z,16.10
2017-11-03T09:07:05.155Z,14.00
2017-11-03T09:09:32.262Z,15.30
2017-11-03T09:11:59.135Z,14.07
2017-11-03T09:14:25.929Z,13.53
2017-11-03T09:16:52.750Z,17.40
2017-11-03T09:19:19.547Z,15.00
2017-11-03T09:21:46.362Z,14.90
2017-11-03T09:24:13.209Z,15.20
2017-11-03T09:26:40.055Z,19.07
2017-11-03T09:29:06.908Z,20.90
2017-11-03T09:31:33.690Z,16.97
2017-11-03T09:34:00.794Z,17.03
2017-11-03T09:36:27.632Z,16.50
2017-11-03T09:38:54.691Z,16.83
2017-11-03T09:41:21.839Z,19.30
2017-11-03T09:43:48.987Z,16.50
2017-11-03T09:46:15.810Z,15.40
2017-11-03T09:48:42.982Z,16.23
2017-11-03T09:51:09.812Z,15.07
2017-11-03T09:53:36.995Z,15.87
2017-11-03T09:56:03.793Z,15.50
2017-11-03T09:58:30.809Z,14.33
2017-11-03T10:00:57.651Z,13.97
2017-11-03T10:03:24.454Z,13.07
2017-11-03T10:05:51.601Z,13.63
2017-11-03T10:08:22.295Z,15.17
2017-11-03T10:10:55.945Z,15.00
2017-11-03T10:13:25.008Z,15.00
2017-11-03T10:15:52.605Z,16.00
2017-11-03T10:18:21.131Z,15.30
2017-11-03T10:20:52.619Z,16.27
2017-11-03T10:23:27.136Z,15.70
2017-11-03T10:25:59.275Z,14.67
2017-11-03T10:28:32.638Z,13.20
2017-11-03T10:31:06.317Z,11.87
2017-11-03T10:33:38.199Z,13.80
2017-11-03T10:36:09.221Z,12.83
2017-11-03T10:38:40.457Z,12.00
2017-11-03T10:41:08.534Z,11.87
2017-11-03T10:43:35.353Z,12.13
2017-11-03T10:46:02.148Z,10.63
2017-11-03T10:48:28.979Z,9.47
2017-11-03T10:50:55.775Z,10.93
2017-11-03T10:53:22.851Z,9.70
2017-11-03T10:55:49.637Z,9.57
2017-11-03T10:58:16.442Z,10.37
2017-11-03T11:00:43.285Z,9.00
2017-11-03T11:03:10.432Z,10.07
2017-11-03T11:05:37.292Z,9.50
2017-11-03T11:08:04.318Z,8.50
2017-11-03T11:10:31.371Z,9.10
2017-11-03T11:12:58.165Z,8.53
2017-11-03T11:15:24.945Z,8.27
2017-11-03T11:17:52.106Z,8.60
2017-11-03T11:20:18.930Z,8.70
2017-11-03T11:22:45.934Z,8.70
2017-11-03T11:25:13.037Z,7.87
2017-11-03T11:27:40.091Z,7.67
2017-11-03T11:30:07.125Z,7.73
2017-11-03T11:32:34.186Z,8.20
2017-11-03T11:35:01.001Z,7.50
2017-11-03T11:37:28.078Z,7.67
2017-11-03T11:39:54.870Z,7.97
2017-11-03T11:42:21.703Z,8.20
2017-11-03T11:44:48.528Z,8.83
2017-11-03T11:47:15.654Z,8.03
2017-11-03T11:49:42.812Z,8.80
2017-11-03T11:52:09.591Z,9.20
2017-11-03T11:54:36.432Z,9.47
2017-11-03T11:57:03.272Z,9.83
2017-11-03T11:59:30.067Z,9.80
2017-11-03T12:01:57.223Z,9.83
2017-11-03T12:04:24.046Z,10.47
2017-11-03T12:06:50.915Z,10.10
2017-11-03T12:09:17.958Z,10.37
2017-11-03T12:11:44.785Z,10.20
2017-11-03T12:14:11.582Z,9.27
2017-11-03T12:16:38.434Z,10.03
2017-11-03T12:19:05.530Z,9.10
2017-11-03T12:21:32.687Z,9.67
2017-11-03T12:23:59.489Z,9.40
2017-11-03T12:26:26.579Z,10.03
2017-11-03T12:28:53.622Z,9.60
2017-11-03T12:31:20.469Z,9.20
2017-11-03T12:33:47.289Z,10.27
2017-11-03T12:36:14.358Z,10.50
2017-11-03T12:38:41.182Z,9.60
2017-11-03T12:41:07.986Z,10.17
2017-11-03T12:43:34.818Z,9.87
2017-11-03T12:46:01.655Z,9.27
2017-11-03T12:48:28.773Z,9.40
2017-11-03T12:50:55.631Z,8.60
2017-11-03T12:53:22.434Z,7.83
2017-11-03T12:55:49.308Z,8.90
2017-11-03T12:58:16.115Z,7.93
2017-11-03T13:00:42.914Z,8.67
2017-11-03T13:03:10.050Z,9.20
2017-11-03T13:05:37.818Z,9.37
2017-11-03T13:08:05.244Z,8.97
2017-11-03T13:10:32.597Z,8.80
2017-11-03T13:13:00.566Z,8.20
2017-11-03T13:15:27.738Z,8.87
2017-11-03T13:17:54.595Z,9.43
2017-11-03T13:20:21.472Z,10.80
2017-11-03T13:22:48.257Z,9.33
2017-11-03T13:25:15.355Z,9.40
2017-11-03T13:27:42.471Z,9.73
2017-11-03T13:30:09.510Z,9.13
2017-11-03T13:32:36.354Z,7.20
2017-11-03T13:35:03.184Z,8.17
2017-11-03T13:37:29.996Z,6.30
2017-11-03T13:40:02.499Z,6.90
2017-11-03T13:42:32.308Z,8.33
2017-11-03T13:44:59.258Z,6.67
2017-11-03T13:47:26.327Z,6.10
2017-11-03T13:49:53.129Z,5.23
2017-11-03T13:52:20.003Z,5.07
2017-11-03T13:54:47.163Z,5.17
2017-11-03T13:57:14.012Z,5.10
2017-11-03T13:59:40.818Z,4.17
2017-11-03T14:02:07.847Z,4.63
2017-11-03T14:04:34.944Z,4.33
2017-11-03T14:07:01.746Z,4.57
2017-11-03T14:09:28.939Z,5.30
2017-11-03T14:11:55.753Z,5.10
2017-11-03T14:14:22.546Z,4.60
2017-11-03T14:16:49.417Z,4.67
2017-11-03T14:19:16.192Z,4.93
2017-11-03T14:21:43.009Z,4.77
2017-11-03T14:24:10.006Z,5.57
2017-11-03T14:26:36.793Z,5.13
2017-11-03T14:29:03.586Z,5.27
2017-11-03T14:31:30.378Z,5.40
2017-11-03T14:33:57.479Z,5.60
2017-11-03T14:36:24.936Z,6.00
2017-11-03T14:38:52.284Z,5.33
2017-11-03T14:41:19.302Z,5.60
2017-11-03T14:43:46.378Z,5.13
2017-11-03T14:46:13.422Z,5.10
2017-11-03T14:48:40.580Z,4.93
2017-11-03T14:51:07.396Z,5.53
2017-11-03T14:53:34.231Z,5.80
2017-11-03T14:56:01.311Z,4.80
2017-11-03T14:58:28.473Z,5.73
2017-11-03T15:00:55.308Z,5.93
2017-11-03T15:03:22.139Z,6.13
2017-11-03T15:05:48.959Z,6.03
2017-11-03T15:08:16.043Z,5.77
2017-11-03T15:10:42.871Z,5.10
2017-11-03T15:13:09.722Z,5.00
2017-11-03T15:15:36.787Z,4.97
2017-11-03T15:18:03.603Z,5.57
2017-11-03T15:20:30.394Z,5.30
2017-11-03T15:22:57.243Z,6.00
2017-11-03T15:25:24.058Z,5.70
2017-11-03T15:27:51.086Z,6.40
2017-11-03T15:30:18.133Z,6.10
2017-11-03T15:32:45.010Z,5.13
2017-11-03T15:35:11.852Z,5.17
2017-11-03T15:37:38.881Z,5.67
2017-11-03T15:40:05.729Z,5.83
2017-11-03T15:42:32.846Z,5.47
2017-11-03T15:45:01.632Z,5.30
2017-11-03T15:47:28.634Z,6.80
2017-11-03T15:49:55.451Z,5.37
2017-11-03T15:52:22.321Z,5.53
2017-11-03T15:54:49.663Z,4.83
2017-11-03T15:57:16.524Z,5.80
2017-11-03T15:59:43.772Z,5.57
2017-11-03T16:02:10.880Z,5.97
2017-11-03T16:04:37.943Z,6.57
2017-11-03T16:07:04.994Z,5.70
2017-11-03T16:09:32.141Z,5.50
2017-11-03T16:11:58.965Z,6.00
2017-11-03T16:14:25.775Z,5.90
2017-11-03T16:16:52.981Z,6.90
2017-11-03T16:19:19.848Z,5.87
2017-11-03T16:21:46.980Z,6.20
2017-11-03T16:24:14.125Z,6.20
2017-11-03T16:26:41.277Z,6.40
2017-11-03T16:29:08.140Z,6.43
2017-11-03T16:31:35.005Z,7.47
2017-11-03T16:34:01.816Z,6.07
2017-11-03T16:36:28.643Z,7.20
2017-11-03T16:38:55.486Z,7.30
2017-11-03T16:41:22.284Z,6.90
2017-11-03T16:43:49.418Z,7.30
2017-11-03T16:46:16.271Z,7.37
2017-11-03T16:48:43.104Z,8.87
2017-11-03T16:51:10.247Z,7.90
2017-11-03T16:53:37.359Z,7.30
2017-11-03T16:56:04.167Z,6.87
2017-11-03T16:58:30.970Z,7.37
2017-11-03T17:00:57.790Z,7.33
2017-11-03T17:03:24.628Z,31.80
2017-11-03T17:05:51.439Z,8.70
2017-11-03T17:08:18.258Z,8.20
2017-11-03T17:10:45.091Z,7.93
2017-11-03T17:13:11.870Z,8.40
2017-11-03T17:15:38.702Z,11.03
2017-11-03T17:18:05.543Z,10.23
2017-11-03T17:20:32.319Z,10.97
2017-11-03T17:22:59.395Z,11.10
2017-11-03T17:25:26.216Z,10.97
2017-11-03T17:27:52.999Z,10.27
2017-11-03T17:30:20.111Z,11.20
2017-11-03T17:32:46.926Z,10.70
2017-11-03T17:35:14.051Z,10.53
2017-11-03T17:37:41.094Z,12.80
2017-11-03T17:40:07.908Z,10.80
2017-11-03T17:42:34.703Z,12.53
2017-11-03T17:45:01.774Z,11.80
2017-11-03T17:47:28.596Z,11.00
2017-11-03T17:49:55.666Z,12.30
2017-11-03T17:52:22.487Z,12.40
2017-11-03T17:54:49.320Z,13.23
2017-11-03T17:57:16.114Z,13.43
2017-11-03T17:59:42.971Z,12.60
2017-11-03T18:02:09.755Z,12.90
2017-11-03T18:04:36.576Z,12.80
2017-11-03T18:07:03.394Z,13.40
2017-11-03T18:09:30.211Z,13.80
2017-11-03T18:11:56.993Z,12.73
2017-11-03T18:14:24.046Z,13.50
2017-11-03T18:16:50.839Z,12.47
2017-11-03T18:19:17.996Z,13.27
2017-11-03T18:21:44.829Z,13.00
2017-11-03T18:24:11.652Z,12.60
2017-11-03T18:26:38.671Z,14.20
2017-11-03T18:29:05.770Z,14.50
2017-11-03T18:31:32.612Z,14.70
2017-11-03T18:33:59.620Z,15.00
2017-11-03T18:36:26.438Z,14.27
2017-11-03T18:38:53.283Z,15.67
2017-11-03T18:41:20.102Z,15.13
2017-11-03T18:43:47.238Z,16.33
2017-11-03T18:46:14.063Z,15.83
2017-11-03T18:48:41.134Z,16.00
2017-11-03T18:51:08.286Z,16.80
2017-11-03T18:53:35.066Z,17.23
2017-11-03T18:56:01.861Z,15.87
2017-11-03T18:58:28.719Z,16.70
2017-11-03T19:00:55.532Z,17.60
2017-11-03T19:03:22.349Z,18.23
2017-11-03T19:05:49.161Z,18.93
2017-11-03T19:08:15.992Z,17.50
2017-11-03T19:10:43.028Z,17.00
2017-11-03T19:13:09.846Z,17.73
2017-11-03T19:15:36.671Z,17.10
2017-11-03T19:18:03.485Z,18.13
2017-11-03T19:20:30.603Z,17.13
2017-11-03T19:22:57.391Z,20.20
2017-11-03T19:25:24.215Z,17.73
2017-11-03T19:27:51.059Z,20.17
2017-11-03T19:30:18.079Z,19.60
2017-11-03T19:32:44.915Z,18.80
2017-11-03T19:35:11.715Z,19.67
2017-11-03T19:37:38.837Z,19.97
2017-11-03T19:40:05.611Z,19.70
2017-11-03T19:42:32.461Z,20.50
2017-11-03T19:44:59.547Z,19.60
2017-11-03T19:47:26.342Z,19.50
2017-11-03T19:49:53.204Z,19.77
2017-11-03T19:52:20.019Z,19.93
2017-11-03T19:54:46.832Z,20.40
2017-11-03T19:57:13.671Z,22.90
2017-11-03T19:59:40.707Z,20.93
2017-11-03T20:02:07.863Z,22.07
2017-11-03T20:04:34.905Z,21.73
2017-11-03T20:07:02.064Z,21.80
2017-11-03T20:09:28.981Z,23.70
2017-11-03T20:11:55.775Z,23.27
2017-11-03T20:14:22.565Z,22.13
2017-11-03T20:16:49.639Z,21.17
2017-11-03T20:19:16.463Z,23.30
2017-11-03T20:21:43.288Z,22.17
2017-11-03T20:24:10.104Z,22.90
2017-11-03T20:26:36.947Z,23.30
2017-11-03T20:29:03.793Z,21.80
2017-11-03T20:31:31.320Z,22.00
2017-11-03T20:33:58.565Z,23.30
2017-11-03T20:36:25.364Z,23.20
2017-11-03T20:38:52.144Z,21.83
2017-11-03T20:41:18.951Z,22.10
2017-11-03T20:43:46.698Z,24.47
2017-11-03T20:46:13.497Z,23.03
2017-11-03T20:48:40.644Z,22.97
2017-11-03T20:51:07.707Z,25.70
2017-11-03T20:53:34.842Z,23.93
2017-11-03T20:56:01.650Z,22.97
2017-11-03T20:58:28.471Z,26.47
2017-11-03T21:00:55.475Z,24.40
2017-11-03T21:03:22.637Z,25.00
2017-11-03T21:05:49.501Z,24.40
2017-11-03T21:08:17.132Z,22.40
2017-11-03T21:10:44.404Z,24.67
2017-11-03T21:13:11.648Z,21.87
2017-11-03T21:15:39.451Z,24.87
2017-11-03T21:18:06.311Z,22.70
2017-11-03T21:20:33.399Z,22.10
2017-11-03T21:23:00.657Z,22.27
2017-11-03T21:25:27.826Z,22.87
2017-11-03T21:27:54.676Z,21.57
2017-11-03T21:30:21.496Z,22.43
2017-11-03T21:32:48.381Z,23.33
2017-11-03T21:35:15.489Z,22.40
2017-11-03T21:37:42.531Z,23.63
2017-11-03T21:40:09.405Z,22.57
2017-11-03T21:42:36.527Z,21.77
2017-11-03T21:45:03.663Z,21.30
2017-11-03T21:47:30.831Z,20.90
2017-11-03T21:49:57.982Z,21.50
2017-11-03T21:52:25.127Z,20.67
2017-11-03T21:54:51.996Z,20.87
2017-11-03T21:57:18.841Z,20.50
2017-11-03T21:59:46.141Z,21.87
2017-11-03T22:02:13.701Z,20.67
2017-11-03T22:04:40.562Z,21.40
2017-11-03T22:07:07.399Z,21.70
2017-11-03T22:09:34.232Z,24.23
2017-11-03T22:12:01.081Z,21.83
2017-11-03T22:14:27.949Z,25.07
2017-11-03T22:16:54.787Z,23.80
2017-11-03T22:19:21.935Z,23.77
2017-11-03T22:21:48.754Z,23.80
2017-11-03T22:24:15.629Z,24.90
2017-11-03T22:26:42.450Z,25.97
2017-11-03T22:29:09.295Z,34.40
2017-11-03T22:31:36.135Z,25.73
2017-11-03T22:34:02.992Z,26.53
2017-11-03T22:36:30.153Z,24.57
2017-11-03T22:38:57.301Z,24.37
2017-11-03T22:41:24.130Z,23.70
2017-11-03T22:43:50.985Z,24.30
2017-11-03T22:46:18.241Z,22.97
2017-11-03T22:48:45.063Z,21.70
2017-11-03T22:51:11.920Z,23.30
2017-11-03T22:53:38.785Z,22.20
2017-11-03T22:56:06.131Z,23.57
2017-11-03T22:58:33.271Z,23.30
2017-11-03T23:01:00.108Z,24.00
2017-11-03T23:03:26.976Z,23.07
2017-11-03T23:05:53.828Z,23.40
2017-11-03T23:08:20.689Z,22.37
2017-11-03T23:10:47.509Z,24.00
2017-11-03T23:13:14.360Z,23.30
2017-11-03T23:15:41.204Z,24.30
2017-11-03T23:18:08.019Z,23.43
2017-11-03T23:20:35.168Z,25.50
2017-11-03T23:23:02.028Z,25.17
2017-11-03T23:25:29.159Z,24.70
2017-11-03T23:27:56.315Z,25.03
2017-11-03T23:30:23.176Z,26.60
2017-11-03T23:32:50.033Z,26.97
2017-11-03T23:35:16.842Z,26.20
2017-11-03T23:37:44.001Z,24.90
2017-11-03T23:40:11.046Z,25.97
2017-11-03T23:42:38.187Z,24.57
2017-11-03T23:45:05.072Z,25.97
2017-11-03T23:47:31.887Z,25.10
2017-11-03T23:49:59.030Z,24.37
2017-11-03T23:52:26.181Z,26.00
2017-11-03T23:54:53.029Z,25.03
2017-11-03T23:57:19.877Z,24.13
2017-11-03T23:59:47.017Z,26.50
